createdAt,value
2023-05-18T08:35:59.736Z,14.30
2023-05-18T10:54:26.077Z,14.70
2023-05-18T13:47:51.814Z,18.30
2023-05-18T13:50:42.354Z,18.70
2023-05-18T13:53:31.247Z,18.70
2023-05-18T13:56:20.026Z,18.00
2023-05-18T13:59:08.767Z,17.80
2023-05-18T14:01:57.638Z,18.00
2023-05-18T14:04:46.442Z,18.30
2023-05-18T14:07:36.759Z,18.80
2023-05-18T14:10:25.488Z,19.00
2023-05-18T14:13:14.223Z,18.30
2023-05-18T14:16:02.967Z,18.00
2023-05-18T14:18:51.785Z,17.80
2023-05-18T14:21:40.664Z,17.60
2023-05-18T14:24:30.830Z,17.60
2023-05-18T14:27:20.642Z,17.70
2023-05-18T14:30:10.192Z,17.90
2023-05-18T14:32:58.939Z,18.00
2023-05-18T14:35:47.763Z,18.10
2023-05-18T14:38:36.492Z,18.40
2023-05-18T14:41:26.617Z,18.30
2023-05-18T14:44:15.368Z,18.30
2023-05-18T14:47:04.244Z,18.30
2023-05-18T14:49:52.989Z,18.30
2023-05-18T14:52:41.737Z,18.20
2023-05-18T14:55:30.536Z,18.20
2023-05-18T14:58:20.877Z,18.40
2023-05-18T15:01:09.719Z,18.30
2023-05-18T15:03:58.547Z,18.30
2023-05-18T15:06:47.338Z,18.30
2023-05-18T15:09:36.242Z,17.80
2023-05-18T15:12:24.996Z,17.40
2023-05-18T15:15:16.975Z,17.20
2023-05-18T15:18:05.840Z,16.90
2023-05-18T15:20:54.628Z,16.80
2023-05-18T15:23:43.329Z,16.90
2023-05-18T15:26:32.189Z,16.60
2023-05-18T15:29:21.761Z,16.60
2023-05-18T15:32:12.065Z,16.70
2023-05-18T15:35:00.858Z,16.80
2023-05-18T15:37:50.301Z,16.80
2023-05-18T15:40:38.989Z,16.70
2023-05-18T15:43:29.786Z,16.50
2023-05-18T15:46:18.516Z,16.40
2023-05-18T15:49:08.752Z,16.20
2023-05-18T15:51:57.525Z,16.10
2023-05-18T15:54:46.341Z,16.20
2023-05-18T15:57:35.291Z,16.10
2023-05-18T16:00:26.212Z,16.00
2023-05-18T16:03:15.262Z,16.00
2023-05-18T16:06:06.129Z,16.00
2023-05-18T16:08:56.008Z,15.80
2023-05-18T16:11:44.734Z,15.60
2023-05-18T16:14:33.442Z,15.50
2023-05-18T16:17:22.258Z,15.70
2023-05-18T16:20:13.277Z,15.80
2023-05-18T16:23:03.400Z,15.80
2023-05-18T16:25:52.162Z,15.70
2023-05-18T16:28:41.262Z,15.70
2023-05-18T16:31:30.054Z,15.70
2023-05-18T16:34:18.819Z,15.50
2023-05-18T16:37:07.484Z,15.30
2023-05-18T16:39:57.728Z,15.20
2023-05-18T16:42:47.581Z,15.30
2023-05-18T16:45:36.446Z,15.40
2023-05-18T16:48:25.296Z,15.30
2023-05-18T16:51:14.012Z,15.30
2023-05-18T16:54:02.773Z,15.30
2023-05-18T16:56:53.197Z,15.20
2023-05-18T16:59:41.935Z,15.20
2023-05-18T17:02:31.539Z,15.20
2023-05-18T17:05:21.688Z,15.10
2023-05-18T17:08:11.272Z,15.00
2023-05-18T17:11:00.122Z,15.00
2023-05-18T17:13:50.574Z,15.00
2023-05-18T17:16:41.058Z,14.90
2023-05-18T17:19:29.743Z,14.90
2023-05-18T17:22:18.457Z,14.90
2023-05-18T17:25:07.843Z,14.90
2023-05-18T17:27:58.762Z,14.80
2023-05-18T17:30:48.928Z,14.70
2023-05-18T17:33:37.657Z,14.50
2023-05-18T17:36:27.263Z,14.40
2023-05-18T17:39:16.777Z,14.40
2023-05-18T17:42:05.873Z,14.30
2023-05-18T17:44:54.604Z,14.30
2023-05-18T17:47:46.085Z,14.20
2023-05-18T17:50:37.817Z,14.20
2023-05-18T17:53:26.622Z,14.10
2023-05-18T17:56:15.341Z,14.10
2023-05-18T17:59:04.218Z,14.00
2023-05-18T18:01:52.933Z,14.00
2023-05-18T18:04:43.112Z,13.90
2023-05-18T18:07:31.820Z,13.90
2023-05-18T20:23:47.385Z,10.20
